sensor_id;sensor_type;location;lat;lon;timestamp;P1;durP1;ratioP1;P2;durP2;ratioP2
36691;SDS011;22678;52.052;4.242;2022-11-20T00:00:45;12.23;;;5.70;;
36691;SDS011;22678;52.052;4.242;2022-11-20T00:03:10;11.57;;;5.83;;
36691;SDS011;22678;52.052;4.242;2022-11-20T00:05:36;13.60;;;5.13;;
36691;SDS011;22678;52.052;4.242;2022-11-20T00:08:01;12.43;;;6.07;;
36691;SDS011;22678;52.052;4.242;2022-11-20T00:10:26;9.90;;;5.53;;
36691;SDS011;22678;52.052;4.242;2022-11-20T00:12:52;9.20;;;4.30;;
36691;SDS011;22678;52.052;4.242;2022-11-20T00:15:17;12.13;;;6.60;;
36691;SDS011;22678;52.052;4.242;2022-11-20T00:17:42;11.07;;;4.53;;
36691;SDS011;22678;52.052;4.242;2022-11-20T00:20:08;13.47;;;5.73;;
36691;SDS011;22678;52.052;4.242;2022-11-20T00:22:33;10.07;;;6.90;;
36691;SDS011;22678;52.052;4.242;2022-11-20T00:24:59;11.73;;;5.83;;
36691;SDS011;22678;52.052;4.242;2022-11-20T00:27:24;12.00;;;5.90;;
36691;SDS011;22678;52.052;4.242;2022-11-20T00:29:49;11.40;;;4.97;;
36691;SDS011;22678;52.052;4.242;2022-11-20T00:32:15;11.87;;;4.37;;
36691;SDS011;22678;52.052;4.242;2022-11-20T00:34:40;8.33;;;4.17;;
36691;SDS011;22678;52.052;4.242;2022-11-20T00:37:05;11.47;;;4.87;;
36691;SDS011;22678;52.052;4.242;2022-11-20T00:39:30;9.33;;;5.23;;
36691;SDS011;22678;52.052;4.242;2022-11-20T00:41:56;12.23;;;6.03;;
36691;SDS011;22678;52.052;4.242;2022-11-20T00:44:21;9.60;;;4.37;;
36691;SDS011;22678;52.052;4.242;2022-11-20T00:46:46;14.47;;;5.03;;
36691;SDS011;22678;52.052;4.242;2022-11-20T00:49:12;13.73;;;5.80;;
36691;SDS011;22678;52.052;4.242;2022-11-20T00:51:37;12.90;;;5.87;;
36691;SDS011;22678;52.052;4.242;2022-11-20T00:54:02;12.13;;;5.00;;
36691;SDS011;22678;52.052;4.242;2022-11-20T00:56:28;10.27;;;4.60;;
36691;SDS011;22678;52.052;4.242;2022-11-20T00:58:53;8.03;;;3.93;;
36691;SDS011;22678;52.052;4.242;2022-11-20T01:01:20;16.53;;;6.43;;
36691;SDS011;22678;52.052;4.242;2022-11-20T01:03:48;10.30;;;4.07;;
36691;SDS011;22678;52.052;4.242;2022-11-20T01:06:16;13.27;;;5.30;;
36691;SDS011;22678;52.052;4.242;2022-11-20T01:09:00;10.43;;;4.03;;
36691;SDS011;22678;52.052;4.242;2022-11-20T01:11:31;9.47;;;5.13;;
36691;SDS011;22678;52.052;4.242;2022-11-20T01:13:59;13.87;;;6.17;;
36691;SDS011;22678;52.052;4.242;2022-11-20T01:16:31;12.10;;;5.33;;
36691;SDS011;22678;52.052;4.242;2022-11-20T01:19:02;12.80;;;6.80;;
36691;SDS011;22678;52.052;4.242;2022-11-20T01:21:30;10.17;;;6.57;;
36691;SDS011;22678;52.052;4.242;2022-11-20T01:23:56;10.57;;;5.40;;
36691;SDS011;22678;52.052;4.242;2022-11-20T01:26:24;13.20;;;6.07;;
36691;SDS011;22678;52.052;4.242;2022-11-20T01:28:51;10.17;;;4.73;;
36691;SDS011;22678;52.052;4.242;2022-11-20T01:31:20;12.77;;;4.37;;
36691;SDS011;22678;52.052;4.242;2022-11-20T01:33:48;12.10;;;5.10;;
36691;SDS011;22678;52.052;4.242;2022-11-20T01:36:16;15.90;;;6.17;;
36691;SDS011;22678;52.052;4.242;2022-11-20T01:38:42;11.03;;;5.87;;
36691;SDS011;22678;52.052;4.242;2022-11-20T01:41:08;11.87;;;6.37;;
36691;SDS011;22678;52.052;4.242;2022-11-20T01:43:35;12.20;;;5.47;;
36691;SDS011;22678;52.052;4.242;2022-11-20T01:48:53;11.38;;;6.07;;
36691;SDS011;22678;52.052;4.242;2022-11-20T01:51:33;18.17;;;5.97;;
36691;SDS011;22678;52.052;4.242;2022-11-20T01:54:05;14.27;;;5.67;;
36691;SDS011;22678;52.052;4.242;2022-11-20T01:56:35;12.10;;;6.57;;
36691;SDS011;22678;52.052;4.242;2022-11-20T01:59:04;12.43;;;5.13;;
36691;SDS011;22678;52.052;4.242;2022-11-20T02:01:32;12.00;;;5.17;;
36691;SDS011;22678;52.052;4.242;2022-11-20T02:03:58;12.50;;;5.73;;
36691;SDS011;22678;52.052;4.242;2022-11-20T02:08:50;11.53;;;6.80;;
36691;SDS011;22678;52.052;4.242;2022-11-20T02:11:16;17.83;;;5.80;;
36691;SDS011;22678;52.052;4.242;2022-11-20T02:13:41;13.60;;;6.13;;
36691;SDS011;22678;52.052;4.242;2022-11-20T02:16:27;12.37;;;6.23;;
36691;SDS011;22678;52.052;4.242;2022-11-20T02:18:55;11.00;;;5.77;;
36691;SDS011;22678;52.052;4.242;2022-11-20T02:24:19;15.90;;;5.63;;
36691;SDS011;22678;52.052;4.242;2022-11-20T02:29:42;13.83;;;5.67;;
36691;SDS011;22678;52.052;4.242;2022-11-20T02:32:21;12.63;;;4.60;;
36691;SDS011;22678;52.052;4.242;2022-11-20T02:34:49;12.83;;;5.63;;
36691;SDS011;22678;52.052;4.242;2022-11-20T02:37:14;11.57;;;5.00;;
36691;SDS011;22678;52.052;4.242;2022-11-20T02:39:40;10.17;;;6.27;;
36691;SDS011;22678;52.052;4.242;2022-11-20T02:42:07;16.67;;;6.87;;
36691;SDS011;22678;52.052;4.242;2022-11-20T02:44:32;11.63;;;5.17;;
36691;SDS011;22678;52.052;4.242;2022-11-20T02:46:57;12.93;;;5.13;;
36691;SDS011;22678;52.052;4.242;2022-11-20T02:49:24;11.80;;;4.30;;
36691;SDS011;22678;52.052;4.242;2022-11-20T02:51:49;15.20;;;6.63;;
36691;SDS011;22678;52.052;4.242;2022-11-20T02:54:15;10.50;;;4.77;;
36691;SDS011;22678;52.052;4.242;2022-11-20T02:56:40;12.90;;;5.33;;
36691;SDS011;22678;52.052;4.242;2022-11-20T02:59:05;10.20;;;4.97;;
36691;SDS011;22678;52.052;4.242;2022-11-20T03:01:31;12.27;;;4.67;;
36691;SDS011;22678;52.052;4.242;2022-11-20T03:03:56;13.27;;;6.23;;
36691;SDS011;22678;52.052;4.242;2022-11-20T03:06:21;19.57;;;6.97;;
36691;SDS011;22678;52.052;4.242;2022-11-20T03:08:47;12.73;;;5.57;;
36691;SDS011;22678;52.052;4.242;2022-11-20T03:11:12;14.43;;;6.03;;
36691;SDS011;22678;52.052;4.242;2022-11-20T03:13:38;15.70;;;6.37;;
36691;SDS011;22678;52.052;4.242;2022-11-20T03:16:11;12.33;;;5.90;;
36691;SDS011;22678;52.052;4.242;2022-11-20T03:18:38;11.43;;;6.00;;
36691;SDS011;22678;52.052;4.242;2022-11-20T03:21:04;11.40;;;6.17;;
36691;SDS011;22678;52.052;4.242;2022-11-20T03:23:30;12.67;;;6.93;;
36691;SDS011;22678;52.052;4.242;2022-11-20T03:26:06;12.60;;;5.50;;
36691;SDS011;22678;52.052;4.242;2022-11-20T03:28:36;14.10;;;6.17;;
36691;SDS011;22678;52.052;4.242;2022-11-20T03:31:08;10.43;;;5.17;;
36691;SDS011;22678;52.052;4.242;2022-11-20T03:33:35;9.80;;;6.07;;
36691;SDS011;22678;52.052;4.242;2022-11-20T03:36:01;10.53;;;5.73;;
36691;SDS011;22678;52.052;4.242;2022-11-20T03:38:29;9.83;;;4.87;;
36691;SDS011;22678;52.052;4.242;2022-11-20T03:40:59;13.00;;;5.93;;
36691;SDS011;22678;52.052;4.242;2022-11-20T03:43:29;13.10;;;6.47;;
36691;SDS011;22678;52.052;4.242;2022-11-20T03:45:55;12.93;;;6.33;;
36691;SDS011;22678;52.052;4.242;2022-11-20T03:48:21;14.23;;;5.83;;
36691;SDS011;22678;52.052;4.242;2022-11-20T03:50:46;11.63;;;4.63;;
36691;SDS011;22678;52.052;4.242;2022-11-20T03:53:12;15.10;;;6.60;;
36691;SDS011;22678;52.052;4.242;2022-11-20T03:55:38;15.20;;;6.03;;
36691;SDS011;22678;52.052;4.242;2022-11-20T03:58:04;12.33;;;5.73;;
36691;SDS011;22678;52.052;4.242;2022-11-20T04:00:29;11.37;;;5.57;;
36691;SDS011;22678;52.052;4.242;2022-11-20T04:02:57;12.60;;;6.00;;
36691;SDS011;22678;52.052;4.242;2022-11-20T04:05:23;14.93;;;5.10;;
36691;SDS011;22678;52.052;4.242;2022-11-20T04:07:49;14.70;;;6.30;;
36691;SDS011;22678;52.052;4.242;2022-11-20T04:10:14;14.63;;;6.60;;
36691;SDS011;22678;52.052;4.242;2022-11-20T04:12:39;11.63;;;6.33;;
36691;SDS011;22678;52.052;4.242;2022-11-20T04:15:05;13.70;;;5.63;;
36691;SDS011;22678;52.052;4.242;2022-11-20T04:17:30;10.97;;;5.53;;
36691;SDS011;22678;52.052;4.242;2022-11-20T04:19:55;12.80;;;6.80;;
36691;SDS011;22678;52.052;4.242;2022-11-20T04:22:21;10.47;;;5.33;;
36691;SDS011;22678;52.052;4.242;2022-11-20T04:24:46;15.43;;;6.27;;
36691;SDS011;22678;52.052;4.242;2022-11-20T04:27:11;11.90;;;6.10;;
36691;SDS011;22678;52.052;4.242;2022-11-20T04:29:37;18.63;;;6.03;;
36691;SDS011;22678;52.052;4.242;2022-11-20T04:32:02;19.03;;;7.77;;
36691;SDS011;22678;52.052;4.242;2022-11-20T04:34:27;18.40;;;7.10;;
36691;SDS011;22678;52.052;4.242;2022-11-20T04:36:52;11.87;;;5.03;;
36691;SDS011;22678;52.052;4.242;2022-11-20T04:39:18;17.20;;;7.33;;
36691;SDS011;22678;52.052;4.242;2022-11-20T04:41:43;14.70;;;7.00;;
36691;SDS011;22678;52.052;4.242;2022-11-20T04:44:09;16.77;;;7.63;;
36691;SDS011;22678;52.052;4.242;2022-11-20T04:46:35;13.43;;;6.47;;
36691;SDS011;22678;52.052;4.242;2022-11-20T04:49:03;16.60;;;8.07;;
36691;SDS011;22678;52.052;4.242;2022-11-20T04:51:29;13.43;;;6.27;;
36691;SDS011;22678;52.052;4.242;2022-11-20T04:53:54;14.53;;;6.33;;
36691;SDS011;22678;52.052;4.242;2022-11-20T04:56:20;12.07;;;6.53;;
36691;SDS011;22678;52.052;4.242;2022-11-20T04:58:45;15.00;;;6.20;;
36691;SDS011;22678;52.052;4.242;2022-11-20T05:03:43;16.93;;;6.77;;
36691;SDS011;22678;52.052;4.242;2022-11-20T05:06:10;16.40;;;7.00;;
36691;SDS011;22678;52.052;4.242;2022-11-20T05:08:37;10.90;;;5.73;;
36691;SDS011;22678;52.052;4.242;2022-11-20T05:11:07;17.53;;;7.63;;
36691;SDS011;22678;52.052;4.242;2022-11-20T05:13:34;16.40;;;7.53;;
36691;SDS011;22678;52.052;4.242;2022-11-20T05:16:01;14.43;;;7.00;;
36691;SDS011;22678;52.052;4.242;2022-11-20T05:18:28;21.60;;;7.97;;
36691;SDS011;22678;52.052;4.242;2022-11-20T05:20:56;12.77;;;6.13;;
36691;SDS011;22678;52.052;4.242;2022-11-20T05:23:22;14.23;;;6.90;;
36691;SDS011;22678;52.052;4.242;2022-11-20T05:25:51;17.57;;;7.60;;
36691;SDS011;22678;52.052;4.242;2022-11-20T05:28:17;15.70;;;7.10;;
36691;SDS011;22678;52.052;4.242;2022-11-20T05:30:43;13.63;;;6.87;;
36691;SDS011;22678;52.052;4.242;2022-11-20T05:33:08;15.87;;;6.70;;
36691;SDS011;22678;52.052;4.242;2022-11-20T05:35:34;13.60;;;6.13;;
36691;SDS011;22678;52.052;4.242;2022-11-20T05:37:59;10.50;;;6.33;;
36691;SDS011;22678;52.052;4.242;2022-11-20T05:40:25;14.30;;;6.07;;
36691;SDS011;22678;52.052;4.242;2022-11-20T05:42:50;14.87;;;6.77;;
36691;SDS011;22678;52.052;4.242;2022-11-20T05:45:15;12.00;;;6.53;;
36691;SDS011;22678;52.052;4.242;2022-11-20T05:47:40;16.23;;;6.50;;
36691;SDS011;22678;52.052;4.242;2022-11-20T05:50:06;16.63;;;8.00;;
36691;SDS011;22678;52.052;4.242;2022-11-20T05:52:31;13.80;;;7.47;;
36691;SDS011;22678;52.052;4.242;2022-11-20T05:54:56;15.93;;;7.70;;
36691;SDS011;22678;52.052;4.242;2022-11-20T05:57:22;16.10;;;7.40;;
36691;SDS011;22678;52.052;4.242;2022-11-20T05:59:47;15.67;;;6.30;;
36691;SDS011;22678;52.052;4.242;2022-11-20T06:02:13;14.77;;;6.43;;
36691;SDS011;22678;52.052;4.242;2022-11-20T06:04:38;15.90;;;6.47;;
36691;SDS011;22678;52.052;4.242;2022-11-20T06:07:04;14.40;;;7.20;;
36691;SDS011;22678;52.052;4.242;2022-11-20T06:09:30;15.73;;;7.60;;
36691;SDS011;22678;52.052;4.242;2022-11-20T06:11:56;15.33;;;8.50;;
36691;SDS011;22678;52.052;4.242;2022-11-20T06:14:21;13.93;;;6.77;;
36691;SDS011;22678;52.052;4.242;2022-11-20T06:16:46;17.57;;;7.70;;
36691;SDS011;22678;52.052;4.242;2022-11-20T06:19:11;11.57;;;6.83;;
36691;SDS011;22678;52.052;4.242;2022-11-20T06:21:37;13.50;;;7.17;;
36691;SDS011;22678;52.052;4.242;2022-11-20T06:24:02;14.03;;;7.67;;
36691;SDS011;22678;52.052;4.242;2022-11-20T06:26:28;19.43;;;8.00;;
36691;SDS011;22678;52.052;4.242;2022-11-20T06:28:53;20.37;;;10.00;;
36691;SDS011;22678;52.052;4.242;2022-11-20T06:31:21;17.30;;;7.60;;
36691;SDS011;22678;52.052;4.242;2022-11-20T06:33:47;19.50;;;7.30;;
36691;SDS011;22678;52.052;4.242;2022-11-20T06:36:13;17.37;;;8.23;;
36691;SDS011;22678;52.052;4.242;2022-11-20T06:38:40;17.33;;;7.83;;
36691;SDS011;22678;52.052;4.242;2022-11-20T06:41:07;18.20;;;9.17;;
36691;SDS011;22678;52.052;4.242;2022-11-20T06:43:35;16.50;;;7.50;;
36691;SDS011;22678;52.052;4.242;2022-11-20T06:46:00;16.57;;;8.43;;
36691;SDS011;22678;52.052;4.242;2022-11-20T06:48:26;15.97;;;7.50;;
36691;SDS011;22678;52.052;4.242;2022-11-20T06:50:52;14.33;;;7.57;;
36691;SDS011;22678;52.052;4.242;2022-11-20T06:53:18;14.23;;;7.40;;
36691;SDS011;22678;52.052;4.242;2022-11-20T06:55:43;17.40;;;8.87;;
36691;SDS011;22678;52.052;4.242;2022-11-20T06:58:10;21.77;;;9.17;;
36691;SDS011;22678;52.052;4.242;2022-11-20T07:00:36;13.47;;;7.37;;
36691;SDS011;22678;52.052;4.242;2022-11-20T07:03:04;20.40;;;9.27;;
36691;SDS011;22678;52.052;4.242;2022-11-20T07:05:30;17.50;;;8.60;;
36691;SDS011;22678;52.052;4.242;2022-11-20T07:07:56;16.20;;;7.50;;
36691;SDS011;22678;52.052;4.242;2022-11-20T07:10:22;16.97;;;8.97;;
36691;SDS011;22678;52.052;4.242;2022-11-20T07:12:50;17.47;;;7.57;;
36691;SDS011;22678;52.052;4.242;2022-11-20T07:15:17;17.13;;;8.10;;
36691;SDS011;22678;52.052;4.242;2022-11-20T07:17:42;23.17;;;8.30;;
36691;SDS011;22678;52.052;4.242;2022-11-20T07:20:08;17.97;;;7.77;;
36691;SDS011;22678;52.052;4.242;2022-11-20T07:22:34;24.47;;;10.77;;
36691;SDS011;22678;52.052;4.242;2022-11-20T07:24:59;18.23;;;8.30;;
36691;SDS011;22678;52.052;4.242;2022-11-20T07:27:25;17.47;;;8.67;;
36691;SDS011;22678;52.052;4.242;2022-11-20T07:29:50;17.90;;;8.83;;
36691;SDS011;22678;52.052;4.242;2022-11-20T07:32:15;18.40;;;9.60;;
36691;SDS011;22678;52.052;4.242;2022-11-20T07:34:41;17.37;;;8.47;;
36691;SDS011;22678;52.052;4.242;2022-11-20T07:37:06;18.70;;;9.23;;
36691;SDS011;22678;52.052;4.242;2022-11-20T07:39:31;17.27;;;8.67;;
36691;SDS011;22678;52.052;4.242;2022-11-20T07:41:56;15.97;;;8.13;;
36691;SDS011;22678;52.052;4.242;2022-11-20T07:44:22;14.20;;;8.23;;
36691;SDS011;22678;52.052;4.242;2022-11-20T07:46:47;19.90;;;8.50;;
36691;SDS011;22678;52.052;4.242;2022-11-20T07:49:12;19.03;;;9.70;;
36691;SDS011;22678;52.052;4.242;2022-11-20T07:51:37;22.13;;;11.20;;
36691;SDS011;22678;52.052;4.242;2022-11-20T07:54:03;20.13;;;8.50;;
36691;SDS011;22678;52.052;4.242;2022-11-20T07:56:28;18.63;;;8.97;;
36691;SDS011;22678;52.052;4.242;2022-11-20T07:58:53;22.93;;;10.10;;
36691;SDS011;22678;52.052;4.242;2022-11-20T08:01:19;20.37;;;9.37;;
36691;SDS011;22678;52.052;4.242;2022-11-20T08:03:44;17.43;;;9.13;;
36691;SDS011;22678;52.052;4.242;2022-11-20T08:06:09;17.83;;;9.50;;
36691;SDS011;22678;52.052;4.242;2022-11-20T08:08:35;19.53;;;10.53;;
36691;SDS011;22678;52.052;4.242;2022-11-20T08:11:00;27.17;;;11.37;;
36691;SDS011;22678;52.052;4.242;2022-11-20T08:13:44;17.33;;;9.00;;
36691;SDS011;22678;52.052;4.242;2022-11-20T08:16:28;25.40;;;10.10;;
36691;SDS011;22678;52.052;4.242;2022-11-20T08:18:53;16.90;;;10.80;;
36691;SDS011;22678;52.052;4.242;2022-11-20T08:21:19;25.87;;;12.90;;
36691;SDS011;22678;52.052;4.242;2022-11-20T08:23:44;22.57;;;10.43;;
36691;SDS011;22678;52.052;4.242;2022-11-20T08:26:09;19.67;;;11.10;;
36691;SDS011;22678;52.052;4.242;2022-11-20T08:28:35;18.33;;;10.07;;
36691;SDS011;22678;52.052;4.242;2022-11-20T08:31:00;17.27;;;10.13;;
36691;SDS011;22678;52.052;4.242;2022-11-20T08:33:26;22.37;;;10.37;;
36691;SDS011;22678;52.052;4.242;2022-11-20T08:35:52;24.10;;;10.27;;
36691;SDS011;22678;52.052;4.242;2022-11-20T08:38:17;23.33;;;11.47;;
36691;SDS011;22678;52.052;4.242;2022-11-20T08:40:43;19.53;;;10.20;;
36691;SDS011;22678;52.052;4.242;2022-11-20T08:43:28;21.37;;;11.03;;
36691;SDS011;22678;52.052;4.242;2022-11-20T08:45:55;22.73;;;11.87;;
36691;SDS011;22678;52.052;4.242;2022-11-20T08:48:21;21.20;;;11.10;;
36691;SDS011;22678;52.052;4.242;2022-11-20T08:50:46;20.90;;;10.10;;
36691;SDS011;22678;52.052;4.242;2022-11-20T08:53:12;22.47;;;10.87;;
36691;SDS011;22678;52.052;4.242;2022-11-20T08:55:37;22.10;;;9.90;;
36691;SDS011;22678;52.052;4.242;2022-11-20T08:58:03;21.73;;;10.50;;
36691;SDS011;22678;52.052;4.242;2022-11-20T09:00:29;18.73;;;10.17;;
36691;SDS011;22678;52.052;4.242;2022-11-20T09:02:54;24.80;;;11.40;;
36691;SDS011;22678;52.052;4.242;2022-11-20T09:05:19;21.97;;;10.63;;
36691;SDS011;22678;52.052;4.242;2022-11-20T09:07:45;29.67;;;12.97;;
36691;SDS011;22678;52.052;4.242;2022-11-20T09:10:10;25.00;;;10.73;;
36691;SDS011;22678;52.052;4.242;2022-11-20T09:12:35;24.63;;;11.50;;
36691;SDS011;22678;52.052;4.242;2022-11-20T09:15:00;26.73;;;13.67;;
36691;SDS011;22678;52.052;4.242;2022-11-20T09:17:26;25.93;;;11.60;;
36691;SDS011;22678;52.052;4.242;2022-11-20T09:19:51;23.37;;;12.67;;
36691;SDS011;22678;52.052;4.242;2022-11-20T09:22:16;19.10;;;10.50;;
36691;SDS011;22678;52.052;4.242;2022-11-20T09:24:42;25.70;;;12.03;;
36691;SDS011;22678;52.052;4.242;2022-11-20T09:27:07;24.67;;;11.40;;
36691;SDS011;22678;52.052;4.242;2022-11-20T09:29:33;33.00;;;12.63;;
36691;SDS011;22678;52.052;4.242;2022-11-20T09:31:58;23.80;;;13.03;;
36691;SDS011;22678;52.052;4.242;2022-11-20T09:34:23;23.13;;;13.37;;
36691;SDS011;22678;52.052;4.242;2022-11-20T09:36:49;28.03;;;13.27;;
36691;SDS011;22678;52.052;4.242;2022-11-20T09:39:14;26.43;;;12.80;;
36691;SDS011;22678;52.052;4.242;2022-11-20T09:41:44;26.37;;;12.77;;
36691;SDS011;22678;52.052;4.242;2022-11-20T09:47:06;30.30;;;13.90;;
36691;SDS011;22678;52.052;4.242;2022-11-20T09:52:11;36.80;;;15.70;;
36691;SDS011;22678;52.052;4.242;2022-11-20T09:54:47;35.45;;;15.23;;
36691;SDS011;22678;52.052;4.242;2022-11-20T09:57:15;32.07;;;15.17;;
36691;SDS011;22678;52.052;4.242;2022-11-20T09:59:48;32.92;;;13.82;;
36691;SDS011;22678;52.052;4.242;2022-11-20T10:02:28;46.83;;;15.63;;
36691;SDS011;22678;52.052;4.242;2022-11-20T10:05:19;30.33;;;15.30;;
36691;SDS011;22678;52.052;4.242;2022-11-20T10:16:36;27.33;;;13.95;;
36691;SDS011;22678;52.052;4.242;2022-11-20T10:22:07;28.93;;;13.83;;
36691;SDS011;22678;52.052;4.242;2022-11-20T10:25:15;31.17;;;15.17;;
36691;SDS011;22678;52.052;4.242;2022-11-20T10:30:57;36.97;;;16.33;;
36691;SDS011;22678;52.052;4.242;2022-11-20T10:33:26;32.93;;;16.53;;
36691;SDS011;22678;52.052;4.242;2022-11-20T10:38:46;33.47;;;14.40;;
36691;SDS011;22678;52.052;4.242;2022-11-20T10:41:20;36.63;;;15.33;;
36691;SDS011;22678;52.052;4.242;2022-11-20T10:46:30;31.20;;;16.37;;
36691;SDS011;22678;52.052;4.242;2022-11-20T10:49:02;32.43;;;13.87;;
36691;SDS011;22678;52.052;4.242;2022-11-20T10:51:31;35.00;;;14.67;;
36691;SDS011;22678;52.052;4.242;2022-11-20T10:59:49;32.57;;;14.53;;
36691;SDS011;22678;52.052;4.242;2022-11-20T11:02:16;33.00;;;15.07;;
36691;SDS011;22678;52.052;4.242;2022-11-20T11:04:45;37.57;;;15.77;;
36691;SDS011;22678;52.052;4.242;2022-11-20T11:07:15;35.07;;;15.90;;
36691;SDS011;22678;52.052;4.242;2022-11-20T11:09:49;35.43;;;17.80;;
36691;SDS011;22678;52.052;4.242;2022-11-20T11:12:19;35.17;;;14.93;;
36691;SDS011;22678;52.052;4.242;2022-11-20T11:14:54;35.80;;;16.83;;
36691;SDS011;22678;52.052;4.242;2022-11-20T11:17:31;35.70;;;16.10;;
36691;SDS011;22678;52.052;4.242;2022-11-20T11:19:59;34.33;;;15.13;;
36691;SDS011;22678;52.052;4.242;2022-11-20T11:22:30;36.07;;;18.37;;
36691;SDS011;22678;52.052;4.242;2022-11-20T11:24:57;32.40;;;18.00;;
36691;SDS011;22678;52.052;4.242;2022-11-20T11:27:23;42.87;;;17.63;;
36691;SDS011;22678;52.052;4.242;2022-11-20T11:29:48;35.50;;;15.93;;
36691;SDS011;22678;52.052;4.242;2022-11-20T11:32:15;38.60;;;19.57;;
36691;SDS011;22678;52.052;4.242;2022-11-20T11:34:43;33.90;;;16.43;;
36691;SDS011;22678;52.052;4.242;2022-11-20T11:37:19;39.90;;;17.97;;
36691;SDS011;22678;52.052;4.242;2022-11-20T11:39:48;39.60;;;17.77;;
36691;SDS011;22678;52.052;4.242;2022-11-20T11:42:16;40.03;;;19.23;;
36691;SDS011;22678;52.052;4.242;2022-11-20T11:44:44;34.57;;;18.30;;
36691;SDS011;22678;52.052;4.242;2022-11-20T11:47:34;34.63;;;17.27;;
36691;SDS011;22678;52.052;4.242;2022-11-20T11:50:12;31.05;;;14.30;;
36691;SDS011;22678;52.052;4.242;2022-11-20T11:55:26;39.10;;;19.87;;
36691;SDS011;22678;52.052;4.242;2022-11-20T11:58:02;39.37;;;19.80;;
36691;SDS011;22678;52.052;4.242;2022-11-20T12:00:36;35.57;;;15.37;;
36691;SDS011;22678;52.052;4.242;2022-11-20T12:05:48;35.67;;;16.47;;
36691;SDS011;22678;52.052;4.242;2022-11-20T12:08:31;36.53;;;19.23;;
36691;SDS011;22678;52.052;4.242;2022-11-20T12:16:22;37.50;;;20.90;;
36691;SDS011;22678;52.052;4.242;2022-11-20T12:18:48;33.67;;;18.77;;
36691;SDS011;22678;52.052;4.242;2022-11-20T12:24:06;45.37;;;22.07;;
36691;SDS011;22678;52.052;4.242;2022-11-20T12:34:43;48.50;;;28.37;;
36691;SDS011;22678;52.052;4.242;2022-11-20T12:43:27;49.70;;;21.40;;
36691;SDS011;22678;52.052;4.242;2022-11-20T12:48:52;45.60;;;20.67;;
36691;SDS011;22678;52.052;4.242;2022-11-20T12:51:43;41.20;;;20.93;;
36691;SDS011;22678;52.052;4.242;2022-11-20T12:54:52;41.07;;;18.67;;
36691;SDS011;22678;52.052;4.242;2022-11-20T13:00:14;42.83;;;19.47;;
36691;SDS011;22678;52.052;4.242;2022-11-20T13:08:25;47.40;;;23.47;;
36691;SDS011;22678;52.052;4.242;2022-11-20T13:13:35;36.67;;;19.67;;
36691;SDS011;22678;52.052;4.242;2022-11-20T13:16:22;50.03;;;23.17;;
36691;SDS011;22678;52.052;4.242;2022-11-20T13:19:11;42.20;;;18.23;;
36691;SDS011;22678;52.052;4.242;2022-11-20T13:21:39;39.80;;;20.57;;
36691;SDS011;22678;52.052;4.242;2022-11-20T13:24:07;43.70;;;20.47;;
36691;SDS011;22678;52.052;4.242;2022-11-20T13:29:32;45.47;;;20.40;;
36691;SDS011;22678;52.052;4.242;2022-11-20T13:32:03;39.33;;;19.90;;
36691;SDS011;22678;52.052;4.242;2022-11-20T13:34:38;41.70;;;20.23;;
36691;SDS011;22678;52.052;4.242;2022-11-20T13:37:04;40.97;;;20.03;;
36691;SDS011;22678;52.052;4.242;2022-11-20T13:39:33;48.20;;;20.10;;
36691;SDS011;22678;52.052;4.242;2022-11-20T13:42:20;40.27;;;19.83;;
36691;SDS011;22678;52.052;4.242;2022-11-20T13:44:53;35.20;;;19.27;;
36691;SDS011;22678;52.052;4.242;2022-11-20T13:47:24;42.80;;;22.57;;
36691;SDS011;22678;52.052;4.242;2022-11-20T13:49:51;50.40;;;24.83;;
36691;SDS011;22678;52.052;4.242;2022-11-20T13:52:33;40.87;;;19.70;;
36691;SDS011;22678;52.052;4.242;2022-11-20T13:55:12;41.13;;;20.97;;
36691;SDS011;22678;52.052;4.242;2022-11-20T14:00:50;44.97;;;19.53;;
36691;SDS011;22678;52.052;4.242;2022-11-20T14:03:23;39.23;;;19.43;;
36691;SDS011;22678;52.052;4.242;2022-11-20T14:05:57;44.33;;;22.80;;
36691;SDS011;22678;52.052;4.242;2022-11-20T14:08:31;46.97;;;19.50;;
36691;SDS011;22678;52.052;4.242;2022-11-20T14:11:04;41.87;;;22.27;;
36691;SDS011;22678;52.052;4.242;2022-11-20T14:13:51;41.47;;;19.27;;
36691;SDS011;22678;52.052;4.242;2022-11-20T14:16:29;41.67;;;23.20;;
36691;SDS011;22678;52.052;4.242;2022-11-20T14:18:57;41.00;;;19.07;;
36691;SDS011;22678;52.052;4.242;2022-11-20T14:21:42;45.63;;;18.93;;
36691;SDS011;22678;52.052;4.242;2022-11-20T14:24:10;45.47;;;19.50;;
36691;SDS011;22678;52.052;4.242;2022-11-20T14:26:37;41.10;;;18.50;;
36691;SDS011;22678;52.052;4.242;2022-11-20T14:29:11;45.77;;;21.60;;
36691;SDS011;22678;52.052;4.242;2022-11-20T14:31:51;35.88;;;18.35;;
36691;SDS011;22678;52.052;4.242;2022-11-20T14:34:22;40.93;;;17.70;;
36691;SDS011;22678;52.052;4.242;2022-11-20T14:36:52;36.50;;;20.05;;
36691;SDS011;22678;52.052;4.242;2022-11-20T14:39:21;34.77;;;18.13;;
36691;SDS011;22678;52.052;4.242;2022-11-20T14:41:52;35.93;;;16.90;;
36691;SDS011;22678;52.052;4.242;2022-11-20T14:44:20;42.30;;;20.63;;
36691;SDS011;22678;52.052;4.242;2022-11-20T14:46:50;34.33;;;17.97;;
36691;SDS011;22678;52.052;4.242;2022-11-20T14:49:17;36.60;;;18.70;;
36691;SDS011;22678;52.052;4.242;2022-11-20T14:51:43;34.37;;;18.73;;
36691;SDS011;22678;52.052;4.242;2022-11-20T14:54:20;39.67;;;18.30;;
36691;SDS011;22678;52.052;4.242;2022-11-20T14:56:53;38.90;;;18.77;;
36691;SDS011;22678;52.052;4.242;2022-11-20T14:59:24;36.33;;;18.33;;
36691;SDS011;22678;52.052;4.242;2022-11-20T15:01:57;40.50;;;17.60;;
36691;SDS011;22678;52.052;4.242;2022-11-20T15:04:25;41.67;;;18.73;;
36691;SDS011;22678;52.052;4.242;2022-11-20T15:06:54;39.33;;;17.40;;
36691;SDS011;22678;52.052;4.242;2022-11-20T15:09:21;34.37;;;16.33;;
36691;SDS011;22678;52.052;4.242;2022-11-20T15:11:54;38.10;;;20.37;;
36691;SDS011;22678;52.052;4.242;2022-11-20T15:14:21;42.03;;;17.27;;
36691;SDS011;22678;52.052;4.242;2022-11-20T15:16:48;36.57;;;17.07;;
36691;SDS011;22678;52.052;4.242;2022-11-20T15:19:18;34.93;;;15.87;;
36691;SDS011;22678;52.052;4.242;2022-11-20T15:21:45;24.35;;;12.20;;
36691;SDS011;22678;52.052;4.242;2022-11-20T15:24:11;31.77;;;14.97;;
36691;SDS011;22678;52.052;4.242;2022-11-20T15:26:36;42.03;;;17.53;;
36691;SDS011;22678;52.052;4.242;2022-11-20T15:29:05;32.27;;;16.00;;
36691;SDS011;22678;52.052;4.242;2022-11-20T15:31:36;30.77;;;15.82;;
36691;SDS011;22678;52.052;4.242;2022-11-20T15:34:07;30.37;;;15.10;;
36691;SDS011;22678;52.052;4.242;2022-11-20T15:36:35;30.53;;;16.33;;
36691;SDS011;22678;52.052;4.242;2022-11-20T15:39:00;30.63;;;16.17;;
36691;SDS011;22678;52.052;4.242;2022-11-20T15:41:27;35.37;;;17.50;;
36691;SDS011;22678;52.052;4.242;2022-11-20T15:43:52;36.47;;;18.13;;
36691;SDS011;22678;52.052;4.242;2022-11-20T15:46:19;35.03;;;15.60;;
36691;SDS011;22678;52.052;4.242;2022-11-20T15:48:51;38.37;;;18.20;;
36691;SDS011;22678;52.052;4.242;2022-11-20T15:51:35;36.33;;;16.17;;
36691;SDS011;22678;52.052;4.242;2022-11-20T15:54:11;28.47;;;13.60;;
36691;SDS011;22678;52.052;4.242;2022-11-20T15:56:43;26.03;;;12.50;;
36691;SDS011;22678;52.052;4.242;2022-11-20T15:59:08;28.83;;;13.70;;
36691;SDS011;22678;52.052;4.242;2022-11-20T16:01:34;24.67;;;14.23;;
36691;SDS011;22678;52.052;4.242;2022-11-20T16:04:00;23.77;;;13.63;;
36691;SDS011;22678;52.052;4.242;2022-11-20T16:06:25;24.23;;;13.30;;
36691;SDS011;22678;52.052;4.242;2022-11-20T16:08:50;24.97;;;14.43;;